Chilapa Escoba Tercera Seccion, México

7:28 PM CDT en Octubre 22, 2017 (GMT -0500)
C P A Carlos Rovirosa International | | Change Station

Alt 43 ft 18.00 °N, 92.82 °W | Updated 42 minutes ago

Niebla
Niebla
75 ° F
Sensación térmica 75 ° F
N
0
Viento Variable Viento desde Norte

Hoy
Alta -- | Baja -- ° F
--% Posibilidad de precipitaciones
Ayer
Alta -- | Baja -- ° F
Precip. -- pul
Presión 29.93 pul
Visibilidad 5.0 Millas
Nubes Muy nublado 1500 ft
Nublado 15000 ft
Punto de rocío 75 ° F
Humedad 100%
Precipitaciones 0.00 pul
Espesor de la nieve No disponible.
7:06 AM 6:43 PM
Creciente, 10% visible
METAR MMVA 222346Z 00000KT 5SM -DZ BKN015 OVC150 24/24 A2993 RMK SLP133 52021 928 8/55/ CBS N NW VRB CONDS
Presión 29.93 pul
Visibilidad 5.0 Millas
Nubes Muy nublado 1500 ft
Nublado 15000 ft
Punto de rocío 75 ° F
Humedad 100%
Precipitaciones 0.00 pul
Espesor de la nieve No disponible.
7:06 AM 6:43 PM
Creciente, 10% visible
METAR MMVA 222346Z 00000KT 5SM -DZ BKN015 OVC150 24/24 A2993 RMK SLP133 52021 928 8/55/ CBS N NW VRB CONDS

Get Severe Weather Alerts

Thanks for signing up!

Be on the lookout for a verification email in your inbox.

You'll start receiving the daily forecast at 6 AM.

×

10-Day Weather Forecast

No radar image for this location.
×

Almanac

Astronomía

Oct. 22, 2017 Salida Puesta
Hora real
Crepúsculo civil
Crepúsculo náutico
Crepúsculo astronómico
Luna
Horas de luz
Horas de luz
Tomorrow will be .
, % of the Moon is Illuminated

Extremos de hoy

Máximos del país Bajas del país

Community

WunderPhotos

Category 6

Welcome to Category 6. This is the collective home for Weather Underground's featured writeups by Dr. Jeff Masters (right), Bob Henson (left), Chris Burt, and other regular contributors.

Nearby

Calidad del aire

  Calidad del aire Índice AQ Contaminante
Not available.

Grosos de nieve

Estación Profundido Altura

Actividad de terremotos

Ciudad Distance Mag. Tiempo y dato
Magnitud mínima muestra es 2,5.

Temperaturas de aguas costeras

Lugar Temperatura

Stations

Estaciones meteorológicas cercanas

Ubicación de la estación Temp. Vientos helados Punto de rocío Humedad Viento Precip. Alt Actualizado Tipo